createdAt,value
2023-06-09T00:01:36.860Z,78.32
2023-06-09T00:04:05.331Z,79.78
2023-06-09T00:06:34.329Z,80.30
2023-06-09T00:09:02.629Z,79.15
2023-06-09T00:11:32.295Z,79.10
2023-06-09T00:14:01.681Z,80.05
2023-06-09T00:16:29.990Z,82.32
2023-06-09T00:19:02.960Z,80.75
2023-06-09T00:21:31.645Z,80.88
2023-06-09T00:24:00.078Z,80.88
2023-06-09T00:26:28.223Z,81.22
2023-06-09T00:28:57.868Z,81.43
2023-06-09T00:31:27.663Z,80.93
2023-06-09T00:33:56.526Z,80.75
2023-06-09T00:36:24.652Z,79.85
2023-06-09T00:38:52.823Z,80.10
2023-06-09T00:41:20.962Z,81.28
2023-06-09T00:43:49.832Z,82.18
2023-06-09T00:46:19.622Z,82.95
2023-06-09T00:48:47.871Z,83.28
2023-06-09T00:51:16.361Z,82.72
2023-06-09T00:53:45.089Z,84.90
2023-06-09T00:56:13.529Z,84.20
2023-06-09T00:58:41.903Z,86.22
2023-06-09T01:01:11.323Z,86.40
2023-06-09T01:03:42.163Z,88.35
2023-06-09T01:06:28.177Z,88.85
2023-06-09T01:09:00.611Z,88.30
2023-06-09T01:11:35.474Z,89.82
2023-06-09T01:14:11.196Z,90.47
2023-06-09T01:16:45.454Z,90.88
2023-06-09T01:19:32.574Z,92.15
2023-06-09T01:22:04.855Z,92.47
2023-06-09T01:24:47.253Z,93.07
2023-06-09T01:27:19.434Z,90.93
2023-06-09T01:29:49.104Z,93.10
2023-06-09T01:32:20.343Z,91.57
2023-06-09T01:34:50.043Z,92.07
2023-06-09T01:37:18.297Z,92.43
2023-06-09T01:39:48.385Z,92.00
2023-06-09T01:42:18.127Z,91.00
2023-06-09T01:44:46.177Z,90.80
2023-06-09T01:47:16.361Z,90.68
2023-06-09T01:49:50.470Z,90.20
2023-06-09T01:52:23.379Z,89.13
2023-06-09T01:54:56.395Z,89.05
2023-06-09T01:57:32.468Z,88.25
2023-06-09T02:00:04.938Z,88.90
2023-06-09T02:02:43.810Z,88.70
2023-06-09T02:05:15.106Z,88.30
2023-06-09T02:07:45.455Z,86.35
2023-06-09T02:10:14.640Z,86.68
2023-06-09T02:12:44.338Z,88.50
2023-06-09T02:15:12.675Z,87.03
2023-06-09T02:17:41.718Z,87.63
2023-06-09T02:20:12.346Z,87.35
2023-06-09T02:22:40.654Z,87.80
2023-06-09T02:25:10.261Z,89.03
2023-06-09T02:27:39.346Z,87.03
2023-06-09T02:30:09.938Z,86.85
2023-06-09T02:32:38.600Z,87.70
2023-06-09T02:35:07.991Z,87.18
2023-06-09T02:37:37.272Z,87.28
2023-06-09T02:40:07.862Z,87.25
2023-06-09T02:42:36.009Z,87.80
2023-06-09T02:45:04.875Z,88.72
2023-06-09T02:47:34.651Z,88.63
2023-06-09T02:50:02.861Z,88.40
2023-06-09T02:52:32.721Z,87.45
2023-06-09T02:55:01.991Z,88.10
2023-06-09T02:57:30.613Z,87.65
2023-06-09T02:59:59.736Z,87.20
2023-06-09T03:02:29.214Z,87.65
2023-06-09T03:04:59.338Z,89.03
2023-06-09T03:07:27.826Z,89.28
2023-06-09T03:09:55.965Z,88.50
2023-06-09T03:12:24.217Z,87.88
2023-06-09T03:14:52.946Z,88.72
2023-06-09T03:17:21.562Z,87.72
2023-06-09T03:19:50.022Z,87.07
2023-06-09T03:22:19.607Z,87.10
2023-06-09T03:24:47.834Z,87.85
2023-06-09T03:27:16.526Z,89.18
2023-06-09T03:29:44.746Z,88.80
2023-06-09T03:32:13.570Z,88.82
2023-06-09T03:34:42.644Z,88.45
2023-06-09T03:37:13.796Z,91.78
2023-06-09T03:39:43.487Z,91.80
2023-06-09T03:42:13.661Z,91.47
2023-06-09T03:44:41.803Z,91.85
2023-06-09T03:47:10.945Z,92.78
2023-06-09T03:49:40.486Z,93.20
2023-06-09T03:52:08.814Z,91.82
2023-06-09T03:54:39.302Z,92.35
2023-06-09T03:57:10.290Z,93.97
2023-06-09T03:59:38.605Z,94.43
2023-06-09T04:02:07.050Z,92.85
2023-06-09T04:04:35.408Z,94.07
2023-06-09T04:07:06.127Z,94.25
2023-06-09T04:09:34.508Z,93.82
2023-06-09T04:12:02.930Z,93.45
2023-06-09T04:14:33.211Z,94.57
2023-06-09T04:17:01.623Z,93.28
2023-06-09T04:19:29.880Z,93.15
2023-06-09T04:21:58.359Z,94.03
2023-06-09T04:24:26.565Z,92.13
2023-06-09T04:26:55.220Z,93.28
2023-06-09T04:29:24.949Z,91.68
2023-06-09T04:32:00.589Z,92.60
2023-06-09T04:34:39.800Z,91.72
2023-06-09T04:37:10.458Z,92.22
2023-06-09T04:39:38.651Z,92.82
2023-06-09T04:42:09.249Z,95.13
2023-06-09T04:44:37.638Z,88.45
2023-06-09T04:47:08.516Z,85.05
2023-06-09T04:49:38.742Z,84.55
2023-06-09T04:52:08.841Z,82.35
2023-06-09T04:54:37.857Z,82.07
2023-06-09T04:57:10.844Z,79.18
2023-06-09T04:59:40.279Z,77.70
2023-06-09T05:02:10.310Z,77.13
2023-06-09T05:04:38.672Z,76.72
2023-06-09T05:07:07.858Z,75.95
2023-06-09T05:09:37.043Z,74.60
2023-06-09T05:12:06.002Z,71.90
2023-06-09T05:14:34.225Z,72.13
2023-06-09T05:17:04.918Z,71.18
2023-06-09T05:19:34.502Z,72.35
2023-06-09T05:22:02.642Z,71.97
2023-06-09T05:24:31.061Z,70.45
2023-06-09T05:26:59.344Z,69.60
2023-06-09T05:29:27.908Z,70.85
2023-06-09T05:31:56.131Z,69.38
2023-06-09T05:34:24.980Z,70.57
2023-06-09T05:36:54.896Z,68.07
2023-06-09T05:39:25.938Z,70.15
2023-06-09T05:41:54.213Z,69.63
2023-06-09T05:44:22.418Z,68.93
2023-06-09T05:46:50.637Z,65.80
2023-06-09T05:49:18.799Z,64.35
2023-06-09T05:51:46.902Z,61.15
2023-06-09T05:54:16.407Z,58.92
2023-06-09T05:56:46.151Z,59.17
2023-06-09T05:59:15.204Z,56.70
2023-06-09T06:01:44.152Z,55.80
2023-06-09T06:04:12.425Z,53.53
2023-06-09T06:06:40.712Z,52.03
2023-06-09T06:09:10.287Z,50.03
2023-06-09T06:11:39.900Z,47.83
2023-06-09T06:14:07.999Z,45.63
2023-06-09T06:16:36.194Z,43.33
2023-06-09T06:19:04.393Z,42.88
2023-06-09T06:21:32.428Z,39.78
2023-06-09T06:24:00.879Z,39.00
2023-06-09T06:26:29.011Z,36.78
2023-06-09T06:28:58.552Z,36.95
2023-06-09T06:31:29.474Z,35.35
2023-06-09T06:33:58.032Z,35.85
2023-06-09T06:36:26.500Z,37.90
2023-06-09T06:38:54.735Z,37.70
2023-06-09T06:41:23.064Z,37.60
2023-06-09T06:43:52.470Z,37.45
2023-06-09T06:46:22.072Z,36.63
2023-06-09T06:48:50.236Z,36.03
2023-06-09T06:51:18.674Z,37.47
2023-06-09T06:53:46.825Z,36.70
2023-06-09T06:56:15.016Z,35.67
2023-06-09T06:58:43.241Z,36.65
2023-06-09T07:01:11.963Z,36.10
2023-06-09T07:03:41.622Z,34.22
2023-06-09T07:06:10.757Z,35.03
2023-06-09T07:08:38.976Z,35.60
2023-06-09T07:11:07.018Z,35.38
2023-06-09T07:13:35.113Z,33.38
2023-06-09T07:16:03.531Z,33.58
2023-06-09T07:18:31.946Z,30.80
2023-06-09T07:21:04.131Z,30.60
2023-06-09T07:23:33.617Z,29.85
2023-06-09T07:26:01.783Z,29.25
2023-06-09T07:28:30.183Z,27.67
2023-06-09T07:30:58.348Z,28.65
2023-06-09T07:33:32.471Z,27.42
2023-06-09T07:36:02.262Z,25.90
2023-06-09T07:38:30.438Z,24.65
2023-06-09T07:40:58.567Z,26.95
2023-06-09T07:43:26.928Z,22.95
2023-06-09T07:45:55.048Z,22.70
2023-06-09T07:48:23.129Z,22.45
2023-06-09T07:51:00.949Z,21.75
2023-06-09T07:53:31.438Z,20.35
2023-06-09T07:56:01.050Z,20.63
2023-06-09T07:58:38.133Z,20.48
2023-06-09T08:01:06.348Z,18.88
2023-06-09T08:03:37.157Z,18.95
2023-06-09T08:06:05.772Z,16.77
2023-06-09T08:08:35.750Z,16.80
2023-06-09T08:11:03.957Z,16.08
2023-06-09T08:13:32.277Z,14.02
2023-06-09T08:16:00.367Z,13.90
2023-06-09T08:18:28.592Z,14.93
2023-06-09T08:20:56.679Z,14.45
2023-06-09T08:23:24.740Z,13.70
2023-06-09T08:25:54.266Z,14.85
2023-06-09T08:28:22.536Z,15.00
2023-06-09T08:30:50.675Z,14.55
2023-06-09T08:33:18.920Z,15.18
2023-06-09T08:35:47.212Z,15.15
2023-06-09T08:38:15.342Z,15.02
2023-06-09T08:40:43.572Z,14.15
2023-06-09T08:43:13.007Z,14.07
2023-06-09T08:45:45.680Z,14.30
2023-06-09T08:48:19.631Z,14.05
2023-06-09T08:50:48.116Z,14.57
2023-06-09T08:53:16.714Z,14.80
2023-06-09T08:55:46.289Z,14.73
2023-06-09T08:58:16.180Z,14.30
2023-06-09T09:00:44.350Z,13.60
2023-06-09T09:03:12.781Z,13.55
2023-06-09T09:05:41.028Z,13.70
2023-06-09T09:08:09.992Z,14.02
2023-06-09T09:10:39.847Z,13.98
2023-06-09T09:13:10.057Z,14.38
2023-06-09T09:15:48.182Z,13.88
2023-06-09T09:18:17.501Z,13.77
2023-06-09T09:20:45.963Z,14.13
2023-06-09T09:23:14.329Z,13.43
2023-06-09T09:25:45.195Z,13.65
2023-06-09T09:28:14.985Z,13.32
2023-06-09T09:30:46.453Z,12.82
2023-06-09T09:33:16.678Z,13.10
2023-06-09T09:35:49.380Z,11.93
2023-06-09T09:38:19.214Z,11.45
2023-06-09T09:40:48.540Z,9.80
2023-06-09T09:43:18.109Z,10.68
2023-06-09T09:45:49.451Z,11.82
2023-06-09T09:48:21.080Z,12.75
2023-06-09T09:50:50.533Z,10.70
2023-06-09T09:53:18.802Z,11.13
2023-06-09T09:55:48.185Z,10.30
2023-06-09T09:58:17.564Z,9.77
2023-06-09T10:00:48.748Z,10.90
2023-06-09T10:03:18.627Z,10.40
2023-06-09T10:05:48.416Z,10.20
2023-06-09T10:08:22.507Z,10.35
2023-06-09T10:10:52.714Z,12.00
2023-06-09T10:13:23.454Z,11.70
2023-06-09T10:15:53.789Z,12.02
2023-06-09T10:18:22.732Z,11.55
2023-06-09T10:20:52.909Z,12.13
2023-06-09T10:23:21.786Z,11.27
2023-06-09T10:25:50.659Z,11.65
2023-06-09T10:28:20.006Z,13.52
2023-06-09T10:30:49.650Z,11.88
2023-06-09T10:33:24.324Z,10.48
2023-06-09T10:35:57.706Z,9.98
2023-06-09T10:38:29.737Z,10.00
2023-06-09T10:41:11.637Z,10.93
2023-06-09T10:44:00.718Z,9.18
2023-06-09T10:46:43.994Z,9.35
2023-06-09T10:49:40.397Z,9.10
2023-06-09T10:52:11.559Z,8.65
2023-06-09T10:54:39.900Z,8.73
2023-06-09T10:57:28.858Z,8.55
2023-06-09T10:59:58.872Z,8.65
2023-06-09T11:02:27.757Z,8.50
2023-06-09T11:04:56.386Z,8.95
2023-06-09T11:07:26.569Z,7.72
2023-06-09T11:10:37.495Z,7.32
2023-06-09T11:13:40.005Z,7.25
2023-06-09T11:16:10.309Z,6.72
2023-06-09T11:18:40.015Z,6.80
2023-06-09T11:21:22.320Z,6.60
2023-06-09T11:24:04.924Z,6.72
2023-06-09T11:26:35.050Z,7.80
2023-06-09T11:29:05.370Z,7.82
2023-06-09T11:31:51.490Z,7.45
2023-06-09T11:34:49.371Z,7.00
2023-06-09T11:37:19.570Z,7.72
2023-06-09T11:39:47.911Z,7.53
2023-06-09T11:42:18.415Z,8.55
2023-06-09T11:44:46.857Z,8.15
2023-06-09T11:47:30.572Z,8.20
2023-06-09T11:50:03.500Z,8.50
2023-06-09T11:52:31.899Z,9.07
2023-06-09T11:55:03.596Z,8.85
2023-06-09T11:57:32.658Z,8.63
2023-06-09T12:00:02.712Z,9.05
2023-06-09T12:02:42.816Z,8.18
2023-06-09T12:05:13.178Z,9.15
2023-06-09T12:07:44.663Z,9.75
2023-06-09T12:12:45.749Z,9.43
2023-06-09T12:15:15.151Z,9.75
2023-06-09T12:17:45.418Z,9.40
2023-06-09T12:20:26.182Z,10.10
2023-06-09T12:22:55.649Z,10.40
2023-06-09T12:25:26.558Z,10.80
2023-06-09T12:27:55.689Z,10.57
2023-06-09T12:30:40.782Z,10.18
2023-06-09T12:33:12.074Z,10.93
2023-06-09T12:35:41.828Z,12.30
2023-06-09T12:38:14.942Z,12.13
2023-06-09T12:40:47.486Z,11.98
2023-06-09T12:43:15.852Z,11.13
2023-06-09T12:45:44.737Z,12.13
2023-06-09T12:48:14.408Z,10.85
2023-06-09T12:50:42.949Z,11.40
2023-06-09T12:53:11.833Z,12.80
2023-06-09T12:55:40.846Z,11.88
2023-06-09T12:58:12.255Z,12.10
2023-06-09T13:00:41.413Z,11.60
2023-06-09T13:03:11.509Z,11.98
2023-06-09T13:05:41.229Z,11.98
2023-06-09T13:08:09.471Z,11.40
2023-06-09T13:10:37.744Z,12.40
2023-06-09T13:13:06.067Z,12.65
2023-06-09T13:15:34.314Z,12.02
2023-06-09T13:18:02.849Z,12.50
2023-06-09T13:20:31.128Z,13.10
2023-06-09T13:23:00.679Z,15.52
2023-06-09T13:25:28.879Z,16.02
2023-06-09T13:27:56.966Z,15.55
2023-06-09T13:30:25.193Z,16.98
2023-06-09T13:32:53.436Z,15.85
2023-06-09T13:35:23.021Z,15.63
2023-06-09T13:37:51.221Z,15.15
2023-06-09T13:40:21.247Z,14.70
2023-06-09T13:42:53.812Z,14.68
2023-06-09T13:45:22.458Z,15.73
2023-06-09T13:47:51.017Z,14.52
2023-06-09T13:50:19.273Z,15.15
2023-06-09T13:52:47.671Z,14.45
2023-06-09T13:55:15.884Z,14.48
2023-06-09T13:57:46.019Z,14.30
2023-06-09T14:00:15.602Z,14.90
2023-06-09T14:02:44.439Z,16.38
2023-06-09T14:05:14.936Z,15.48
2023-06-09T14:07:46.612Z,15.55
2023-06-09T14:10:16.974Z,16.80
2023-06-09T14:12:49.653Z,16.67
2023-06-09T14:15:27.167Z,16.48
2023-06-09T14:17:57.302Z,15.05
2023-06-09T14:20:27.192Z,16.52
2023-06-09T14:22:57.114Z,16.52
2023-06-09T14:25:27.345Z,19.75
2023-06-09T14:27:57.702Z,16.52
2023-06-09T14:30:27.979Z,16.05
2023-06-09T14:32:56.850Z,13.98
2023-06-09T14:35:27.245Z,13.20
2023-06-09T14:37:57.339Z,12.32
2023-06-09T14:40:27.265Z,11.95
2023-06-09T14:42:57.222Z,10.93
2023-06-09T14:45:26.843Z,12.20
2023-06-09T14:47:56.767Z,11.55
2023-06-09T14:50:26.810Z,11.45
2023-06-09T14:52:59.830Z,11.98
2023-06-09T14:55:29.789Z,13.88
2023-06-09T14:58:00.962Z,10.25
2023-06-09T15:00:29.667Z,10.00
2023-06-09T15:02:59.559Z,5.95
2023-06-09T15:05:29.591Z,5.32
2023-06-09T15:07:59.775Z,6.20
2023-06-09T15:10:28.950Z,6.20
2023-06-09T15:12:57.041Z,6.28
2023-06-09T15:15:29.432Z,5.70
2023-06-09T15:17:59.125Z,6.95
2023-06-09T15:20:30.157Z,6.45
2023-06-09T15:22:59.871Z,6.78
2023-06-09T15:25:30.404Z,6.43
2023-06-09T15:28:01.348Z,7.18
2023-06-09T15:30:32.247Z,7.43
2023-06-09T15:33:04.271Z,8.77
2023-06-09T15:35:35.951Z,7.97
2023-06-09T15:38:06.081Z,8.55
2023-06-09T15:40:35.781Z,8.93
2023-06-09T15:43:05.233Z,8.93
2023-06-09T15:45:40.168Z,8.75
2023-06-09T15:48:08.476Z,8.70
2023-06-09T15:50:37.121Z,9.18
2023-06-09T15:53:05.611Z,8.98
2023-06-09T15:55:34.743Z,9.38
2023-06-09T15:58:05.245Z,10.23
2023-06-09T16:00:33.889Z,10.00
2023-06-09T16:03:06.856Z,10.43
2023-06-09T16:05:36.328Z,10.70
2023-06-09T16:08:05.202Z,11.38
2023-06-09T16:10:33.670Z,12.27
2023-06-09T16:13:02.830Z,12.55
2023-06-09T16:15:32.562Z,13.55
2023-06-09T16:18:03.973Z,13.35
2023-06-09T16:20:36.056Z,13.27
2023-06-09T16:23:06.154Z,13.20
2023-06-09T16:25:34.478Z,14.68
2023-06-09T16:28:03.902Z,14.02
2023-06-09T16:30:32.366Z,15.95
2023-06-09T16:33:01.680Z,20.77
2023-06-09T16:35:29.946Z,21.63
2023-06-09T16:37:59.361Z,19.58
2023-06-09T16:40:29.465Z,20.52
2023-06-09T16:42:59.879Z,20.48
2023-06-09T16:45:28.583Z,22.83
2023-06-09T16:47:57.445Z,25.80
2023-06-09T16:50:25.959Z,27.42
2023-06-09T16:52:55.504Z,29.08
2023-06-09T16:55:26.088Z,31.88
2023-06-09T16:57:54.394Z,34.17
2023-06-09T17:00:23.523Z,36.78
2023-06-09T17:02:55.447Z,38.42
2023-06-09T17:05:24.267Z,37.70
2023-06-09T17:07:52.461Z,36.13
2023-06-09T17:10:20.652Z,36.92
2023-06-09T17:12:50.167Z,36.97
2023-06-09T17:15:18.348Z,35.38
2023-06-09T17:17:46.705Z,34.65
2023-06-09T17:20:14.946Z,35.00
2023-06-09T17:22:43.708Z,34.53
2023-06-09T17:25:12.137Z,34.40
2023-06-09T17:27:40.521Z,35.55
2023-06-09T17:30:14.392Z,37.17
2023-06-09T17:32:43.570Z,40.63
2023-06-09T17:35:12.272Z,41.83
2023-06-09T17:37:40.870Z,42.90
2023-06-09T17:40:11.132Z,44.33
2023-06-09T17:42:39.607Z,46.53
2023-06-09T17:45:11.186Z,46.10
2023-06-09T17:47:40.021Z,46.28
2023-06-09T17:50:10.185Z,45.17
2023-06-09T17:52:38.315Z,44.53
2023-06-09T17:55:07.348Z,45.00
2023-06-09T17:57:35.684Z,45.28
2023-06-09T18:00:05.887Z,45.90
2023-06-09T18:02:39.179Z,45.80
2023-06-09T18:05:08.108Z,46.55
2023-06-09T18:07:36.350Z,46.63
2023-06-09T18:10:06.348Z,47.50
2023-06-09T18:12:34.789Z,47.47
2023-06-09T18:15:03.233Z,45.83
2023-06-09T18:17:32.635Z,47.30
2023-06-09T18:20:02.300Z,46.88
2023-06-09T18:22:32.679Z,47.20
2023-06-09T18:25:00.932Z,49.90
2023-06-09T18:27:29.034Z,48.42
2023-06-09T18:29:57.058Z,48.53
2023-06-09T18:32:25.228Z,49.28
2023-06-09T18:34:53.322Z,48.78
2023-06-09T18:37:22.884Z,50.20
2023-06-09T18:39:51.249Z,50.45
2023-06-09T18:42:19.427Z,49.80
2023-06-09T18:44:47.554Z,51.03
2023-06-09T18:47:16.024Z,52.17
2023-06-09T18:49:46.101Z,51.05
2023-06-09T18:52:14.615Z,50.83
2023-06-09T18:54:44.070Z,50.25
2023-06-09T18:57:12.271Z,51.55
2023-06-09T18:59:40.543Z,51.45
2023-06-09T19:02:09.270Z,51.55
2023-06-09T19:04:37.531Z,52.17
2023-06-09T19:07:06.013Z,53.53
2023-06-09T19:09:34.576Z,52.05
2023-06-09T19:12:04.149Z,52.05
2023-06-09T19:14:32.425Z,52.83
2023-06-09T19:17:00.607Z,53.28
2023-06-09T19:19:28.835Z,52.88
2023-06-09T19:21:56.981Z,52.78
2023-06-09T19:24:25.207Z,53.63
2023-06-09T19:26:53.270Z,54.30
2023-06-09T19:29:22.872Z,55.35
2023-06-09T19:31:51.320Z,55.85
2023-06-09T19:34:19.502Z,57.58
2023-06-09T19:36:47.556Z,57.65
2023-06-09T19:39:15.889Z,58.05
2023-06-09T19:41:44.030Z,59.70
2023-06-09T19:44:12.269Z,59.95
2023-06-09T19:46:41.977Z,59.58
2023-06-09T19:49:12.720Z,60.00
2023-06-09T19:51:41.140Z,58.60
2023-06-09T19:54:09.331Z,60.67
2023-06-09T19:56:46.092Z,60.40
2023-06-09T19:59:15.458Z,60.75
2023-06-09T20:01:45.783Z,58.88
2023-06-09T20:04:14.156Z,58.55
2023-06-09T20:06:43.647Z,57.30
2023-06-09T20:09:12.125Z,57.70
2023-06-09T20:11:40.801Z,57.38
2023-06-09T20:14:10.140Z,58.60
2023-06-09T20:16:39.475Z,57.70
2023-06-09T20:19:09.109Z,57.90
2023-06-09T20:21:37.518Z,58.15
2023-06-09T20:24:07.391Z,59.15
2023-06-09T20:26:35.990Z,59.65
2023-06-09T20:29:04.068Z,60.50
2023-06-09T20:31:32.385Z,60.90
2023-06-09T20:34:01.871Z,61.60
2023-06-09T20:36:33.578Z,62.17
2023-06-09T20:39:02.060Z,62.08
2023-06-09T20:41:30.119Z,62.40
2023-06-09T20:43:58.965Z,63.78
2023-06-09T20:46:27.257Z,65.45
2023-06-09T20:48:55.336Z,65.53
2023-06-09T20:51:23.590Z,66.78
2023-06-09T20:53:53.020Z,66.82
2023-06-09T20:56:21.658Z,67.85
2023-06-09T20:58:49.816Z,68.22
2023-06-09T21:01:18.141Z,69.13
2023-06-09T21:03:48.884Z,69.43
2023-06-09T21:06:21.472Z,70.07
2023-06-09T21:08:50.063Z,70.07
2023-06-09T21:11:20.232Z,69.50
2023-06-09T21:13:48.380Z,69.68
2023-06-09T21:16:16.971Z,71.43
2023-06-09T21:18:45.053Z,70.70
2023-06-09T21:21:13.323Z,69.47
2023-06-09T21:23:41.473Z,70.13
2023-06-09T21:26:09.769Z,70.45
2023-06-09T21:28:43.079Z,69.05
2023-06-09T21:31:12.316Z,68.88
2023-06-09T21:33:40.521Z,68.97
2023-06-09T21:36:09.540Z,68.28
2023-06-09T21:38:37.790Z,67.20
2023-06-09T21:41:06.041Z,71.30
2023-06-09T21:43:34.178Z,68.43
2023-06-09T21:46:03.749Z,67.18
2023-06-09T21:48:31.912Z,67.10
2023-06-09T21:51:00.142Z,68.20
2023-06-09T21:53:28.170Z,70.22
2023-06-09T21:55:56.342Z,70.75
2023-06-09T21:58:24.466Z,71.18
2023-06-09T22:00:52.768Z,73.30
2023-06-09T22:03:22.397Z,77.03
2023-06-09T22:05:50.812Z,79.00
2023-06-09T22:08:18.972Z,79.55
2023-06-09T22:10:47.349Z,83.55
2023-06-09T22:13:18.997Z,84.40
2023-06-09T22:15:47.381Z,84.90
2023-06-09T22:18:18.471Z,84.13
2023-06-09T22:20:48.148Z,85.47
2023-06-09T22:23:16.278Z,85.05
2023-06-09T22:25:44.312Z,85.60
2023-06-09T22:28:12.535Z,86.40
2023-06-09T22:30:40.790Z,87.53
2023-06-09T22:33:09.086Z,87.50
2023-06-09T22:35:37.197Z,87.43
2023-06-09T22:38:06.909Z,88.85
2023-06-09T22:40:35.517Z,88.68
2023-06-09T22:43:03.645Z,88.53
2023-06-09T22:45:31.661Z,88.75
2023-06-09T22:48:01.774Z,89.55
2023-06-09T22:50:30.276Z,88.80
2023-06-09T22:52:58.701Z,88.68
2023-06-09T22:55:28.184Z,87.90
2023-06-09T22:57:56.562Z,89.13
2023-06-09T23:00:24.758Z,91.88
2023-06-09T23:02:53.573Z,91.97
2023-06-09T23:05:28.781Z,92.15
2023-06-09T23:07:57.358Z,93.43
2023-06-09T23:10:25.731Z,92.25
2023-06-09T23:12:55.231Z,92.85
2023-06-09T23:15:24.123Z,93.05
2023-06-09T23:17:53.729Z,92.07
2023-06-09T23:20:23.049Z,94.50
2023-06-09T23:22:52.893Z,91.03
2023-06-09T23:25:21.311Z,92.85
2023-06-09T23:27:49.480Z,92.13
2023-06-09T23:30:19.587Z,92.85
2023-06-09T23:32:47.888Z,92.45
2023-06-09T23:35:18.256Z,94.18
2023-06-09T23:37:53.722Z,93.88
2023-06-09T23:40:21.934Z,94.97
2023-06-09T23:42:50.030Z,94.53
2023-06-09T23:45:19.844Z,95.32
2023-06-09T23:47:48.271Z,96.53
2023-06-09T23:50:16.437Z,97.43
2023-06-09T23:52:44.608Z,96.85
2023-06-09T23:55:12.902Z,96.85
2023-06-09T23:57:42.386Z,98.07
